TNCB/BON METAR and TAF weather

Enter ICAO airport designator
Station Type Date Time Source
TNCB METAR 2020/11/27 13:55 UTC NOAA

TNCB 271355Z 08012KT 050V110 9999 SCT018 27/25 Q1013 RERA


Station Type Date Time Source
TNCB Decoded METAR 2020/11/27 13:55 UTC NOAA

Flamingo Airport, Bonaire, Netherlands Antilles (TNCB) 12-09N 068-17W 7M
Nov 27, 2020 - 08:55 AM EST / 2020.11.27 1355 UTC
Wind: from the E (080 degrees) at 14 MPH (12 KT) (direction variable):0
Visibility: greater than 7 mile(s):0
Sky conditions: partly cloudy
Temperature: 80 F (27 C)
Dew Point: 77 F (25 C)
Relative Humidity: 88%
Pressure (altimeter): 29.91 in. Hg (1013 hPa)
ob: TNCB 271355Z 08012KT 050V110 9999 SCT018 27/25 Q1013 RERA
cycle: 14

Station Type Date Time Source
TNCB TAF 2020/11/27 12:27 UTC NOAA

TAF TAF TNCB 271111Z 2712/2818 08012KT 9999 SCT018
TEMPO 2712/2816 VRB15G25KT 4000 SHRA SCT015CB BKN020

Example: see airport list